createdAt,value
2022-11-05T00:01:56.685Z,99657.22
2022-11-05T00:07:23.823Z,99657.25
2022-11-05T00:12:43.982Z,99671.78
2022-11-05T00:17:45.480Z,99671.44
2022-11-05T00:23:05.367Z,99673.78
2022-11-05T00:28:06.848Z,99678.00
2022-11-05T00:33:08.543Z,99678.81
2022-11-05T00:38:10.361Z,99684.19
2022-11-05T00:43:30.736Z,99683.00
2022-11-05T00:48:50.866Z,99694.91
2022-11-05T00:53:52.362Z,99703.28
2022-11-05T00:58:55.688Z,99704.59
2022-11-05T01:03:57.204Z,99709.94
2022-11-05T01:08:58.734Z,99713.81
2022-11-05T01:14:08.467Z,99713.44
2022-11-05T01:19:11.247Z,99713.63
2022-11-05T01:24:12.745Z,99712.97
2022-11-05T01:29:15.209Z,99714.44
2022-11-05T01:34:16.782Z,99733.56
2022-11-05T01:39:18.261Z,99734.91
2022-11-05T01:44:52.962Z,99751.66
2022-11-05T01:49:55.394Z,99769.03
2022-11-05T01:54:57.037Z,99770.69
2022-11-05T02:00:00.123Z,99781.72
2022-11-05T02:18:41.295Z,99771.72
2022-11-05T02:24:01.615Z,99775.06
2022-11-05T02:29:24.495Z,99794.97
2022-11-05T02:34:33.005Z,99798.63
2022-11-05T02:39:47.533Z,99804.00
2022-11-05T02:45:23.971Z,99806.50
2022-11-05T02:50:54.494Z,99802.31
2022-11-05T02:56:20.501Z,99809.53
2022-11-05T03:01:22.068Z,99811.53
2022-11-05T03:06:35.363Z,99821.59
2022-11-05T03:12:19.502Z,99839.44
2022-11-05T03:18:03.503Z,99834.00
2022-11-05T03:23:20.848Z,99843.00
2022-11-05T03:28:24.931Z,99851.16
2022-11-05T03:33:28.962Z,99848.13
2022-11-05T03:38:35.597Z,99848.66
2022-11-05T03:43:41.501Z,99853.47
2022-11-05T03:48:47.637Z,99851.69
2022-11-05T03:53:54.030Z,99870.34
2022-11-05T03:58:58.886Z,99873.41
2022-11-05T04:04:00.734Z,99882.63
2022-11-05T04:09:20.857Z,99885.16
2022-11-05T04:14:22.602Z,99893.53
2022-11-05T04:19:42.503Z,99904.06
2022-11-05T04:24:43.967Z,99918.28
2022-11-05T04:30:04.049Z,99922.84
2022-11-05T04:35:05.773Z,99928.72
2022-11-05T04:40:07.826Z,99932.59
2022-11-05T04:45:09.344Z,99939.31
2022-11-05T04:50:12.131Z,99948.72
2022-11-05T04:55:13.626Z,99945.06
2022-11-05T05:00:15.535Z,99941.75
2022-11-05T05:05:17.234Z,99935.94
2022-11-05T05:10:18.804Z,99955.03
2022-11-05T05:15:20.358Z,99958.41
2022-11-05T05:20:40.170Z,99953.94
2022-11-05T05:25:41.652Z,99966.66
2022-11-05T05:30:43.141Z,99976.84
2022-11-05T05:35:44.823Z,99992.06
2022-11-05T05:40:46.363Z,100002.88
2022-11-05T05:45:47.826Z,99996.16
2022-11-05T05:50:49.342Z,100001.81
2022-11-05T05:55:53.610Z,99997.22
2022-11-05T06:00:55.499Z,100009.59
2022-11-05T06:06:05.534Z,100017.56
2022-11-05T06:11:07.632Z,100016.22
2022-11-05T06:16:10.050Z,100020.50
2022-11-05T06:21:15.086Z,100019.16
2022-11-05T06:26:18.137Z,100029.53
2022-11-05T06:31:19.711Z,100042.44
2022-11-05T06:36:21.290Z,100055.44
2022-11-05T06:41:22.867Z,100070.28
2022-11-05T06:46:24.392Z,100083.19
2022-11-05T06:51:27.095Z,100088.72
2022-11-05T06:56:28.656Z,100095.81
2022-11-05T07:01:30.330Z,100113.09
2022-11-05T07:06:36.829Z,100110.81
2022-11-05T07:11:38.695Z,100126.16
2022-11-05T07:16:40.504Z,100133.91
2022-11-05T07:21:42.031Z,100141.69
2022-11-05T07:26:43.563Z,100152.59
2022-11-05T07:31:46.929Z,100167.38
2022-11-05T07:36:48.519Z,100169.28
2022-11-05T07:41:52.281Z,100180.94
2022-11-05T07:46:53.801Z,100194.16
2022-11-05T07:51:55.347Z,100185.72
2022-11-05T07:56:56.817Z,100194.97
2022-11-05T08:01:58.396Z,100203.91
2022-11-05T08:07:00.127Z,100206.91
2022-11-05T08:12:03.183Z,100211.91
2022-11-05T08:17:04.992Z,100217.03
2022-11-05T08:22:06.467Z,100218.63
2022-11-05T08:27:07.958Z,100222.81
2022-11-05T08:32:09.489Z,100223.56
2022-11-05T08:37:11.383Z,100234.91
2022-11-05T08:42:12.901Z,100241.22
2022-11-05T08:47:14.628Z,100242.22
2022-11-05T08:52:16.249Z,100253.25
2022-11-05T08:57:17.760Z,100264.22
2022-11-05T09:02:19.363Z,100258.94
2022-11-05T09:07:22.856Z,100259.72
2022-11-05T09:12:24.412Z,100265.72
2022-11-05T09:17:25.953Z,100276.34
2022-11-05T09:22:27.430Z,100266.91
2022-11-05T09:27:28.936Z,100262.47
2022-11-05T09:32:31.649Z,100265.94
2022-11-05T09:37:33.252Z,100277.59
2022-11-05T09:42:39.649Z,100275.31
2022-11-05T09:47:45.342Z,100278.41
2022-11-05T09:52:46.971Z,100281.69
2022-11-05T09:57:53.001Z,100283.50
2022-11-05T10:03:06.425Z,100275.34
2022-11-05T10:08:16.919Z,100277.56
2022-11-05T10:13:37.330Z,100294.56
2022-11-05T10:18:44.724Z,100302.06
2022-11-05T10:23:47.491Z,100306.94
2022-11-05T10:28:49.192Z,100310.31
2022-11-05T10:33:53.724Z,100333.13
2022-11-05T10:39:00.654Z,100320.22
2022-11-05T10:44:17.633Z,100314.00
2022-11-05T10:49:41.527Z,100318.63
2022-11-05T10:54:43.181Z,100320.00
2022-11-05T10:59:44.679Z,100314.00
2022-11-05T11:04:52.306Z,100320.38
2022-11-05T11:09:53.935Z,100325.47
2022-11-05T11:15:16.139Z,100331.13
2022-11-05T11:20:29.282Z,100333.78
2022-11-05T11:25:54.690Z,100330.41
2022-11-05T11:31:09.708Z,100334.41
2022-11-05T11:36:12.008Z,100336.94
2022-11-05T11:41:25.829Z,100326.84
2022-11-05T11:46:32.667Z,100332.88
2022-11-05T11:51:48.142Z,100326.97
2022-11-05T11:56:51.539Z,100349.78
2022-11-05T12:01:55.817Z,100335.44
2022-11-05T12:07:38.823Z,100335.94
2022-11-05T12:12:56.203Z,100333.59
2022-11-05T12:18:04.703Z,100338.31
2022-11-05T12:23:15.368Z,100333.78
2022-11-05T12:28:57.841Z,100339.28
2022-11-05T12:34:23.516Z,100344.47
2022-11-05T12:39:34.214Z,100345.25
2022-11-05T12:45:02.444Z,100347.25
2022-11-05T12:50:24.739Z,100356.34
2022-11-05T12:55:31.344Z,100358.31
2022-11-05T13:00:33.204Z,100357.31
2022-11-05T13:05:36.244Z,100347.19
2022-11-05T13:10:51.912Z,100353.16
2022-11-05T13:16:02.046Z,100355.91
2022-11-05T13:21:06.105Z,100360.16
2022-11-05T13:26:19.891Z,100356.44
2022-11-05T13:31:29.426Z,100362.72
2022-11-05T13:36:52.805Z,100372.19
2022-11-05T13:42:11.633Z,100371.75
2022-11-05T13:47:13.075Z,100377.31
2022-11-05T13:52:23.309Z,100381.78
2022-11-05T13:57:43.379Z,100382.81
2022-11-05T14:02:54.974Z,100389.47
2022-11-05T14:07:58.996Z,100395.47
2022-11-05T14:13:06.596Z,100399.47
2022-11-05T14:18:47.380Z,100403.16
2022-11-05T14:23:51.177Z,100405.47
2022-11-05T14:28:58.544Z,100402.94
2022-11-05T14:34:08.208Z,100405.56
2022-11-05T14:39:13.356Z,100408.50
2022-11-05T14:44:15.361Z,100413.38
2022-11-05T14:49:29.214Z,100418.06
2022-11-05T14:54:40.590Z,100422.50
2022-11-05T14:59:52.706Z,100417.91
2022-11-05T15:05:35.519Z,100428.47
2022-11-05T15:10:37.472Z,100435.03
2022-11-05T15:15:42.708Z,100429.69
2022-11-05T15:20:47.525Z,100440.63
2022-11-05T15:26:09.716Z,100449.28
2022-11-05T15:31:13.860Z,100441.97
2022-11-05T15:36:29.801Z,100446.88
2022-11-05T15:41:34.289Z,100459.94
2022-11-05T15:46:35.777Z,100456.81
2022-11-05T15:51:37.268Z,100465.53
2022-11-05T15:56:45.164Z,100462.19
2022-11-05T16:01:52.984Z,100463.88
2022-11-05T16:06:58.329Z,100465.84
2022-11-05T16:12:18.119Z,100468.72
2022-11-05T16:17:22.577Z,100481.28
2022-11-05T16:22:24.379Z,100472.66
2022-11-05T16:27:25.867Z,100476.03
2022-11-05T16:32:31.212Z,100482.19
2022-11-05T16:37:40.987Z,100491.28
2022-11-05T16:42:42.897Z,100490.13
2022-11-05T16:47:45.159Z,100501.56
2022-11-05T16:52:47.133Z,100495.84
2022-11-05T16:57:51.665Z,100506.28
2022-11-05T17:02:53.394Z,100507.13
2022-11-05T17:07:55.284Z,100515.13
2022-11-05T17:12:57.041Z,100512.63
2022-11-05T17:17:59.469Z,100520.63
2022-11-05T17:23:01.708Z,100518.94
2022-11-05T17:28:03.718Z,100525.53
2022-11-05T17:33:05.641Z,100532.16
2022-11-05T17:38:07.611Z,100520.22
2022-11-05T17:43:09.328Z,100532.88
2022-11-05T17:48:11.366Z,100536.81
2022-11-05T17:53:13.646Z,100545.69
2022-11-05T17:58:15.814Z,100543.22
2022-11-05T18:03:17.439Z,100555.72
2022-11-05T18:08:18.981Z,100554.44
2022-11-05T18:13:20.448Z,100564.91
2022-11-05T18:18:22.162Z,100572.06
2022-11-05T18:23:23.669Z,100576.72
2022-11-05T18:28:25.427Z,100581.66
2022-11-05T18:33:26.957Z,100586.72
2022-11-05T18:38:28.769Z,100588.53
2022-11-05T18:43:30.281Z,100598.47
2022-11-05T18:48:32.271Z,100596.06
2022-11-05T18:53:33.766Z,100588.72
2022-11-05T18:58:35.777Z,100601.56
2022-11-05T19:03:37.318Z,100604.09
2022-11-05T19:08:38.855Z,100595.41
2022-11-05T19:13:40.684Z,100592.81
2022-11-05T19:18:42.661Z,100596.94
2022-11-05T19:23:44.208Z,100596.66
2022-11-05T19:28:45.943Z,100599.53
2022-11-05T19:33:48.887Z,100602.09
2022-11-05T19:38:58.161Z,100598.84
2022-11-05T19:44:01.530Z,100606.44
2022-11-05T19:49:03.221Z,100610.38
2022-11-05T19:54:05.385Z,100619.81
2022-11-05T19:59:07.084Z,100619.81
2022-11-05T20:04:09.678Z,100613.69
2022-11-05T20:09:22.250Z,100625.53
2022-11-05T20:14:25.286Z,100627.38
2022-11-05T20:19:26.808Z,100620.00
2022-11-05T20:24:28.429Z,100633.28
2022-11-05T20:29:35.274Z,100638.78
2022-11-05T20:34:37.463Z,100639.81
2022-11-05T20:39:39.035Z,100642.06
2022-11-05T20:44:40.580Z,100649.81
2022-11-05T20:49:42.752Z,100661.00
2022-11-05T20:54:44.579Z,100663.47
2022-11-05T20:59:46.060Z,100659.56
2022-11-05T21:04:47.665Z,100651.44
2022-11-05T21:09:49.199Z,100651.50
2022-11-05T21:14:51.604Z,100633.47
2022-11-05T21:19:53.206Z,100642.31
2022-11-05T21:24:56.764Z,100638.97
2022-11-05T21:29:58.250Z,100646.03
2022-11-05T21:34:59.823Z,100647.97
2022-11-05T21:40:01.425Z,100659.13
2022-11-05T21:45:02.938Z,100655.41
2022-11-05T21:50:04.655Z,100658.09
2022-11-05T21:55:29.760Z,100665.41
2022-11-05T22:00:31.273Z,100668.56
2022-11-05T22:05:32.816Z,100664.75
2022-11-05T22:10:34.323Z,100654.75
2022-11-05T22:15:35.810Z,100652.56
2022-11-05T22:20:38.805Z,100648.56
2022-11-05T22:25:40.304Z,100649.53
2022-11-05T22:30:41.796Z,100647.50
2022-11-05T22:35:43.325Z,100638.88
2022-11-05T22:40:44.858Z,100637.19
2022-11-05T22:45:46.365Z,100635.03
2022-11-05T22:50:47.864Z,100640.59
2022-11-05T22:55:49.375Z,100635.50
2022-11-05T23:00:50.935Z,100633.22
2022-11-05T23:06:03.421Z,100633.31
2022-11-05T23:11:28.261Z,100640.34
2022-11-05T23:16:55.663Z,100637.91
2022-11-05T23:22:15.939Z,100651.72
2022-11-05T23:27:17.425Z,100643.63
2022-11-05T23:32:24.648Z,100649.19
2022-11-05T23:37:49.042Z,100649.06
2022-11-05T23:43:09.534Z,100645.19
2022-11-05T23:48:22.898Z,100652.44
2022-11-05T23:53:24.449Z,100653.78
2022-11-05T23:58:25.933Z,100652.69
